Time;durP1;ratioP1;P1;durP2;ratioP2;P2;SDS_P1;SDS_P2;PMS_P1;PMS_P2;Temp;Humidity;BMP_temperature;BMP_pressure;BME280_temperature;BME280_humidity;BME280_pressure;Samples;Min_cycle;Max_cycle;Signal;HPM_P1;HPM_P2
2022/10/08 00:01:40;;;;;;;;;;;282.00;2278.40;;;;;;5091561;28;19908;-62
2022/10/08 00:04:05;;;;;;;;;;;282.00;2278.40;;;;;;5091394;28;19912;-59
2022/10/08 00:06:31;;;;;;;;;;;282.00;2278.40;;;;;;5091800;28;19953;-60
2022/10/08 00:08:58;;;;;;;;;;;282.00;2278.40;;;;;;5091431;28;19908;-61
2022/10/08 00:11:25;;;;;;;;;;;281.90;2278.40;;;;;;5091698;28;19915;-61
2022/10/08 00:13:51;;;;;;;;;;;281.90;2278.40;;;;;;5091598;28;19912;-61
2022/10/08 00:16:20;;;;;;;;;;;281.80;2278.40;;;;;;5091172;28;19916;-61
2022/10/08 00:18:47;;;;;;;;;;;281.80;2278.40;;;;;;5091118;28;20365;-61
2022/10/08 00:21:20;;;;;;;;;;;281.80;2278.40;;;;;;5090052;28;19915;-61
2022/10/08 00:23:46;;;;;;;;;;;281.90;2278.40;;;;;;5091187;28;19912;-61
2022/10/08 00:26:12;;;;;;;;;;;281.90;2278.40;;;;;;5091329;28;19915;-61
2022/10/08 00:28:40;;;;;;;;;;;281.80;2278.40;;;;;;5091163;28;19908;-61
2022/10/08 00:31:08;;;;;;;;;;;281.80;2278.40;;;;;;5090912;28;19912;-61
2022/10/08 00:33:37;;;;;;;;;;;281.80;2278.40;;;;;;5091103;28;19935;-61
2022/10/08 00:36:03;;;;;;;;;;;281.80;2278.40;;;;;;5091299;28;19978;-61
2022/10/08 00:38:29;;;;;;;;;;;281.70;2278.40;;;;;;5091332;28;19908;-61
2022/10/08 00:40:55;;;;;;;;;;;281.70;2278.40;;;;;;5090940;28;19915;-62
2022/10/08 00:43:39;;;;;;;;;;;281.70;2278.40;;;;;;5091095;28;19931;-62
2022/10/08 00:46:05;;;;;;;;;;;281.60;2278.40;;;;;;5090943;28;19909;-62
2022/10/08 00:48:31;;;;;;;;;;;256.90;2252.80;;;;;;5091227;28;19908;-61
2022/10/08 00:50:56;;;;;;;;;;;256.90;2252.80;;;;;;5090831;28;20423;-61
2022/10/08 00:53:22;;;;;;;;;;;256.80;2252.80;;;;;;5091010;28;19908;-62
2022/10/08 00:55:47;;;;;;;;;;;256.80;2252.80;;;;;;5090765;28;19916;-62
2022/10/08 00:58:18;;;;;;;;;;;256.80;2252.80;;;;;;5090445;28;19908;-61
2022/10/08 01:00:43;;;;;;;;;;;256.70;2252.80;;;;;;5090867;28;20326;-62
2022/10/08 01:03:09;;;;;;;;;;;256.50;2252.80;;;;;;5090510;28;19955;-62
2022/10/08 01:05:41;;;;;;;;;;;256.40;2252.80;;;;;;5090457;28;19920;-62
2022/10/08 01:08:12;;;;;;;;;;;256.40;2252.80;;;;;;5090605;28;19924;-61
2022/10/08 01:10:42;;;;;;;;;;;256.50;2252.80;;;;;;5090436;28;20411;-62
2022/10/08 01:13:17;;;;;;;;;;;256.50;2252.80;;;;;;5090416;28;20358;-62
2022/10/08 01:15:54;;;;;;;;;;;256.50;2252.80;;;;;;5090746;28;19920;-61
2022/10/08 01:18:38;;;;;;;;;;;256.60;2252.80;;;;;;5090730;28;19985;-61
2022/10/08 01:21:12;;;;;;;;;;;256.50;2252.80;;;;;;5090781;28;19908;-61
2022/10/08 01:23:54;;;;;;;;;;;256.50;2252.80;;;;;;5090254;28;20019;-62
2022/10/08 01:26:38;;;;;;;;;;;256.50;2252.80;;;;;;5090653;28;19908;-61
2022/10/08 01:29:03;;;;;;;;;;;256.50;2252.80;;;;;;5090694;28;19908;-61
2022/10/08 01:31:32;;;;;;;;;;;256.40;2252.80;;;;;;5090785;28;20045;-61
2022/10/08 01:34:04;;;;;;;;;;;256.30;2252.80;;;;;;5089956;28;19923;-61
2022/10/08 01:36:37;;;;;;;;;;;256.20;2252.80;;;;;;5090742;28;19973;-61
2022/10/08 01:39:04;;;;;;;;;;;256.30;2252.80;;;;;;5090437;28;19908;-61
2022/10/08 01:41:31;;;;;;;;;;;256.30;2252.80;;;;;;5090495;28;19952;-61
2022/10/08 01:44:06;;;;;;;;;;;256.30;2252.80;;;;;;5090150;28;19912;-62
2022/10/08 01:46:33;;;;;;;;;;;256.20;2252.80;;;;;;5090499;28;19908;-61
2022/10/08 01:49:01;;;;;;;;;;;256.30;2252.80;;;;;;5090026;28;19912;-60
2022/10/08 01:51:34;;;;;;;;;;;256.20;2252.80;;;;;;5090071;28;19944;-61
2022/10/08 01:54:04;;;;;;;;;;;256.20;2252.80;;;;;;5090386;28;20003;-61
2022/10/08 01:56:31;;;;;;;;;;;256.10;2252.80;;;;;;5089012;28;20362;-61
2022/10/08 01:59:00;;;;;;;;;;;256.10;2252.80;;;;;;5090175;28;20015;-61
2022/10/08 02:01:31;;;;;;;;;;;256.10;2252.80;;;;;;5090080;28;19912;-62
2022/10/08 02:06:45;;;;;;;;;;;256.00;2252.80;;;;;;5090173;28;19970;-62
2022/10/08 02:09:10;;;;;;;;;;;256.10;2252.80;;;;;;5090107;28;19908;-61
2022/10/08 02:11:36;;;;;;;;;;;256.00;2252.80;;;;;;5092885;28;19957;-61
2022/10/08 02:14:04;;;;;;;;;;;256.00;2252.80;;;;;;5093994;28;19908;-62
2022/10/08 02:16:31;;;;;;;;;;;231.30;2252.80;;;;;;5094014;28;19956;-61
2022/10/08 02:19:08;;;;;;;;;;;231.30;2252.80;;;;;;5093403;28;19969;-61
2022/10/08 02:21:34;;;;;;;;;;;231.30;2252.80;;;;;;5093907;28;19908;-61
2022/10/08 02:24:08;;;;;;;;;;;231.20;2252.80;;;;;;5093779;28;19912;-61
2022/10/08 02:26:39;;;;;;;;;;;231.20;2252.80;;;;;;5093680;28;19908;-61
2022/10/08 02:29:04;;;;;;;;;;;231.20;2252.80;;;;;;5093235;28;19939;-61
2022/10/08 02:31:39;;;;;;;;;;;231.20;2252.80;;;;;;5093685;28;19915;-62
2022/10/08 02:34:23;;;;;;;;;;;231.30;2252.80;;;;;;5092996;28;19912;-62
2022/10/08 02:37:04;;;;;;;;;;;231.20;2252.80;;;;;;5093476;28;19920;-61
2022/10/08 02:39:32;;;;;;;;;;;231.20;2252.80;;;;;;5093447;28;20350;-62
2022/10/08 02:42:03;;;;;;;;;;;231.20;2252.80;;;;;;5093321;28;19919;-62
2022/10/08 02:44:32;;;;;;;;;;;231.20;2252.80;;;;;;5093153;28;19915;-61
2022/10/08 02:46:59;;;;;;;;;;;231.20;2252.80;;;;;;5093106;28;20384;-62
2022/10/08 02:49:30;;;;;;;;;;;231.20;2252.80;;;;;;5092869;28;19919;-62
2022/10/08 02:51:57;;;;;;;;;;;231.30;2252.80;;;;;;5092948;28;19912;-62
2022/10/08 02:54:22;;;;;;;;;;;231.30;2252.80;;;;;;5093154;28;19990;-61
2022/10/08 02:56:53;;;;;;;;;;;231.30;2252.80;;;;;;5092747;28;20397;-61
2022/10/08 02:59:19;;;;;;;;;;;231.30;2252.80;;;;;;5092739;28;19908;-62
2022/10/08 03:01:46;;;;;;;;;;;231.30;2252.80;;;;;;5092647;28;19954;-62
2022/10/08 03:04:31;;;;;;;;;;;231.30;2252.80;;;;;;5092595;28;20427;-62
2022/10/08 03:06:58;;;;;;;;;;;231.20;2252.80;;;;;;5092623;28;19966;-62
2022/10/08 03:09:25;;;;;;;;;;;231.30;2252.80;;;;;;5092859;28;19908;-61
2022/10/08 03:11:51;;;;;;;;;;;231.20;2252.80;;;;;;5092944;28;19914;-61
2022/10/08 03:14:19;;;;;;;;;;;231.10;2252.80;;;;;;5092763;28;19951;-62
2022/10/08 03:16:46;;;;;;;;;;;231.10;2252.80;;;;;;5092583;28;20293;-61
2022/10/08 03:19:13;;;;;;;;;;;231.10;2252.80;;;;;;5092463;28;19979;-62
2022/10/08 03:21:40;;;;;;;;;;;231.10;2252.80;;;;;;5091925;28;19908;-61
2022/10/08 03:24:06;;;;;;;;;;;231.10;2252.80;;;;;;5092336;28;20396;-61
2022/10/08 03:26:32;;;;;;;;;;;231.10;2252.80;;;;;;5092584;28;19908;-61
2022/10/08 03:28:57;;;;;;;;;;;231.00;2252.80;;;;;;5092218;28;19912;-61
2022/10/08 03:31:23;;;;;;;;;;;231.00;2252.80;;;;;;5092480;28;20285;-62
2022/10/08 03:33:52;;;;;;;;;;;231.00;2252.80;;;;;;5091785;28;19935;-61
2022/10/08 03:36:17;;;;;;;;;;;231.00;2252.80;;;;;;5092166;28;19921;-61
2022/10/08 03:38:43;;;;;;;;;;;230.90;2252.80;;;;;;5092204;28;20274;-61
2022/10/08 03:41:09;;;;;;;;;;;230.90;2252.80;;;;;;5092127;28;19909;-61
2022/10/08 03:43:34;;;;;;;;;;;230.80;2252.80;;;;;;5092030;28;20285;-62
2022/10/08 03:46:00;;;;;;;;;;;230.80;2252.80;;;;;;5092178;28;20397;-61
2022/10/08 03:48:26;;;;;;;;;;;230.80;2252.80;;;;;;5091676;28;19919;-62
2022/10/08 03:50:56;;;;;;;;;;;230.90;2252.80;;;;;;5091906;28;20361;-61
2022/10/08 03:53:22;;;;;;;;;;;230.90;2252.80;;;;;;5092053;28;19991;-61
2022/10/08 03:55:47;;;;;;;;;;;230.90;2252.80;;;;;;5091632;28;20023;-61
2022/10/08 03:58:13;;;;;;;;;;;230.90;2252.80;;;;;;5091754;28;20334;-61
2022/10/08 04:00:39;;;;;;;;;;;230.90;2252.80;;;;;;5091704;28;19915;-61
2022/10/08 04:03:04;;;;;;;;;;;230.90;2252.80;;;;;;5091321;28;20316;-61
2022/10/08 04:05:30;;;;;;;;;;;230.90;2252.80;;;;;;5091741;28;20354;-61
2022/10/08 04:07:55;;;;;;;;;;;230.80;2252.80;;;;;;5091234;28;19946;-62
2022/10/08 04:10:21;;;;;;;;;;;230.70;2252.80;;;;;;5091592;28;19915;-61
2022/10/08 04:12:46;;;;;;;;;;;230.70;2252.80;;;;;;5091484;28;19961;-62
2022/10/08 04:15:12;;;;;;;;;;;230.70;2252.80;;;;;;5091447;28;20354;-61
2022/10/08 04:17:39;;;;;;;;;;;230.70;2252.80;;;;;;5091360;28;20350;-62
2022/10/08 04:20:05;;;;;;;;;;;230.60;2252.80;;;;;;5090968;28;19909;-61
2022/10/08 04:22:30;;;;;;;;;;;230.60;2252.80;;;;;;5091592;28;20002;-61
2022/10/08 04:24:56;;;;;;;;;;;230.60;2252.80;;;;;;5091340;28;20011;-62
2022/10/08 04:27:21;;;;;;;;;;;230.60;2252.80;;;;;;5091321;28;20354;-61
2022/10/08 04:29:47;;;;;;;;;;;230.60;2252.80;;;;;;5090891;28;19908;-61
2022/10/08 04:32:12;;;;;;;;;;;230.60;2252.80;;;;;;5091190;28;19953;-61
2022/10/08 04:34:38;;;;;;;;;;;230.50;2252.80;;;;;;5090120;28;19916;-62
2022/10/08 04:37:03;;;;;;;;;;;230.50;2252.80;;;;;;5091255;28;20370;-61
2022/10/08 04:39:29;;;;;;;;;;;230.40;2252.80;;;;;;5090983;28;19970;-61
2022/10/08 04:41:55;;;;;;;;;;;230.50;2252.80;;;;;;5090970;28;19914;-61
2022/10/08 04:44:20;;;;;;;;;;;230.50;2252.80;;;;;;5091031;28;19916;-61
2022/10/08 04:46:46;;;;;;;;;;;230.60;2252.80;;;;;;5090853;28;19962;-62
2022/10/08 04:49:11;;;;;;;;;;;230.60;2252.80;;;;;;5090845;28;19913;-61
2022/10/08 04:51:37;;;;;;;;;;;230.60;2252.80;;;;;;5090654;28;20389;-62
2022/10/08 04:54:02;;;;;;;;;;;230.60;2252.80;;;;;;5091123;28;19908;-61
2022/10/08 04:56:29;;;;;;;;;;;230.60;2252.80;;;;;;5090543;28;19923;-61
2022/10/08 04:58:56;;;;;;;;;;;230.70;2252.80;;;;;;5090570;28;19933;-61
2022/10/08 05:01:22;;;;;;;;;;;230.70;2252.80;;;;;;5090878;28;20034;-61
2022/10/08 05:03:49;;;;;;;;;;;230.80;2252.80;;;;;;5090332;28;19969;-61
2022/10/08 05:06:15;;;;;;;;;;;230.70;2252.80;;;;;;5090255;28;19927;-61
2022/10/08 05:08:41;;;;;;;;;;;230.80;2252.80;;;;;;5090795;28;19914;-60
2022/10/08 05:11:07;;;;;;;;;;;230.70;2252.80;;;;;;5090324;28;20336;-62
2022/10/08 05:13:33;;;;;;;;;;;230.70;2252.80;;;;;;5090816;28;19915;-61
2022/10/08 05:16:06;;;;;;;;;;;230.70;2252.80;;;;;;5090221;28;20323;-62
2022/10/08 05:18:32;;;;;;;;;;;230.80;2252.80;;;;;;5090503;28;20307;-61
2022/10/08 05:21:03;;;;;;;;;;;230.90;2252.80;;;;;;5090406;28;19912;-62
2022/10/08 05:23:29;;;;;;;;;;;230.90;2252.80;;;;;;5090661;28;20336;-62
2022/10/08 05:25:54;;;;;;;;;;;231.00;2252.80;;;;;;5090173;28;19912;-61
2022/10/08 05:28:20;;;;;;;;;;;231.00;2252.80;;;;;;5090408;28;20070;-62
2022/10/08 05:30:45;;;;;;;;;;;231.10;2252.80;;;;;;5090232;28;19920;-61
2022/10/08 05:33:11;;;;;;;;;;;231.20;2252.80;;;;;;5090352;28;19945;-61
2022/10/08 05:35:37;;;;;;;;;;;231.20;2252.80;;;;;;5090152;28;19931;-61
2022/10/08 05:38:03;;;;;;;;;;;231.20;2252.80;;;;;;5090357;28;19908;-61
2022/10/08 05:40:29;;;;;;;;;;;231.30;2252.80;;;;;;5090149;28;19912;-62
2022/10/08 05:42:55;;;;;;;;;;;231.30;2252.80;;;;;;5090270;28;20223;-62
2022/10/08 05:45:21;;;;;;;;;;;256.00;2252.80;;;;;;5093281;28;20013;-61
2022/10/08 05:47:47;;;;;;;;;;;256.10;2252.80;;;;;;5094118;28;20373;-62
2022/10/08 05:50:13;;;;;;;;;;;256.20;2252.80;;;;;;5093236;28;19919;-66
2022/10/08 05:52:38;;;;;;;;;;;256.40;2252.80;;;;;;5092681;28;20358;-67
2022/10/08 05:55:04;;;;;;;;;;;256.50;2252.80;;;;;;5092856;28;19913;-60
2022/10/08 05:57:30;;;;;;;;;;;256.70;2252.80;;;;;;5092855;28;19947;-67
2022/10/08 05:59:55;;;;;;;;;;;256.70;2252.80;;;;;;5092316;28;19916;-68
2022/10/08 06:02:21;;;;;;;;;;;256.60;2252.80;;;;;;5092739;28;19908;-68
2022/10/08 06:04:48;;;;;;;;;;;256.80;2252.80;;;;;;5092130;28;20286;-67
2022/10/08 06:07:13;;;;;;;;;;;282.20;2278.40;;;;;;5092423;28;20016;-67
2022/10/08 06:09:39;;;;;;;;;;;333.00;2329.60;;;;;;5092427;28;19991;-68
2022/10/08 06:12:05;;;;;;;;;;;358.90;2329.60;;;;;;5092446;28;19958;-61
2022/10/08 06:14:31;;;;;;;;;;;384.50;2329.60;;;;;;5092467;28;19942;-59
2022/10/08 06:16:56;;;;;;;;;;;435.30;2355.20;;;;;;5092321;28;19908;-60
2022/10/08 06:19:22;;;;;;;;;;;486.40;2380.80;;;;;;5092507;28;19991;-59
2022/10/08 06:21:48;;;;;;;;;;;512.90;2099.20;;;;;;5091992;28;19909;-67
2022/10/08 06:24:14;;;;;;;;;;;563.20;2022.40;;;;;;5092365;28;19913;-60
2022/10/08 06:26:41;;;;;;;;;;;564.10;1843.20;;;;;;5092310;28;19908;-58
2022/10/08 06:29:07;;;;;;;;;;;589.70;1766.40;;;;;;5092015;28;19923;-61
2022/10/08 06:31:33;;;;;;;;;;;614.50;1766.40;;;;;;5092521;28;19908;-67
2022/10/08 06:34:01;;;;;;;;;;;614.70;1715.20;;;;;;5092097;28;19998;-59
2022/10/08 06:36:27;;;;;;;;;;;640.20;1664.00;;;;;;5091695;28;20366;-59
2022/10/08 06:39:03;;;;;;;;;;;640.20;1638.40;;;;;;5092054;28;20374;-58
2022/10/08 06:41:34;;;;;;;;;;;640.90;1561.60;;;;;;5091580;28;20243;-66
2022/10/08 06:44:01;;;;;;;;;;;640.40;1612.80;;;;;;5092688;28;19916;-66
2022/10/08 06:46:29;;;;;;;;;;;665.60;1612.80;;;;;;5092654;28;19952;-64
2022/10/08 06:48:55;;;;;;;;;;;640.70;1587.20;;;;;;5091849;28;19923;-60
2022/10/08 06:51:21;;;;;;;;;;;666.00;1587.20;;;;;;5091798;28;19912;-59
2022/10/08 06:53:50;;;;;;;;;;;691.70;1510.40;;;;;;5088543;28;20376;-67
2022/10/08 06:56:18;;;;;;;;;;;717.00;1484.80;;;;;;5090729;28;20275;-62
2022/10/08 06:58:46;;;;;;;;;;;691.70;1510.40;;;;;;5091568;28;20319;-59
2022/10/08 07:01:13;;;;;;;;;;;666.00;1536.00;;;;;;5091624;28;19908;-60
2022/10/08 07:03:39;;;;;;;;;;;691.20;1536.00;;;;;;5091195;28;20014;-62
2022/10/08 07:06:06;;;;;;;;;;;692.00;1510.40;;;;;;5091154;28;19967;-61
2022/10/08 07:08:32;;;;;;;;;;;691.80;1510.40;;;;;;5092010;28;19912;-66
2022/10/08 07:11:03;;;;;;;;;;;717.60;1484.80;;;;;;5091331;28;19936;-65
2022/10/08 07:13:29;;;;;;;;;;;742.60;1459.20;;;;;;5090816;28;19951;-61
2022/10/08 07:16:05;;;;;;;;;;;743.10;1408.00;;;;;;5090720;28;19955;-60
2022/10/08 07:18:31;;;;;;;;;;;793.70;1382.40;;;;;;5071988;28;19908;-67
2022/10/08 07:20:57;;;;;;;;;;;794.40;1331.20;;;;;;5072112;28;19936;-66
2022/10/08 07:23:22;;;;;;;;;;;794.10;1356.80;;;;;;5086128;28;19959;-60
2022/10/08 07:25:57;;;;;;;;;;;819.90;1305.60;;;;;;5092233;28;20429;-59
2022/10/08 07:28:23;;;;;;;;;;;845.20;1254.40;;;;;;5092490;28;20320;-60
2022/10/08 07:30:49;;;;;;;;;;;819.30;1305.60;;;;;;5092291;28;20002;-67
2022/10/08 07:33:15;;;;;;;;;;;819.30;1305.60;;;;;;5092003;28;19956;-60
2022/10/08 07:35:40;;;;;;;;;;;819.40;1331.20;;;;;;5091561;28;20404;-60
2022/10/08 07:38:06;;;;;;;;;;;845.00;1305.60;;;;;;5091956;28;19999;-66
2022/10/08 07:40:34;;;;;;;;;;;870.70;1228.80;;;;;;5092123;28;20358;-59
2022/10/08 07:42:59;;;;;;;;;;;870.90;1203.20;;;;;;5092019;28;20327;-64
2022/10/08 07:45:25;;;;;;;;;;;870.80;1228.80;;;;;;5091901;28;20018;-61
2022/10/08 07:47:50;;;;;;;;;;;896.10;1152.00;;;;;;5092029;28;19954;-60
2022/10/08 07:50:16;;;;;;;;;;;896.40;1177.60;;;;;;5091813;28;20273;-61
2022/10/08 07:52:42;;;;;;;;;;;;;;;;;;5091625;28;20365;-61
2022/10/08 07:55:07;;;;;;;;;;;;;;;;;;5091658;28;19912;-60
2022/10/08 07:57:33;;;;;;;;;;;896.60;1152.00;;;;;;5092038;28;19908;-68
2022/10/08 07:59:59;;;;;;;;;;;896.40;1152.00;;;;;;5091646;28;19969;-62
2022/10/08 08:02:24;;;;;;;;;;;896.50;1152.00;;;;;;5091437;28;19912;-60
2022/10/08 08:04:50;;;;;;;;;;;922.00;1126.40;;;;;;5091593;28;20011;-60
2022/10/08 08:07:15;;;;;;;;;;;922.50;1100.80;;;;;;5090879;28;19928;-61
2022/10/08 08:09:41;;;;;;;;;;;947.60;1049.60;;;;;;5091332;28;20410;-60
2022/10/08 08:12:06;;;;;;;;;;;947.80;1049.60;;;;;;5091338;28;20247;-61
2022/10/08 08:14:32;;;;;;;;;;;972.90;1049.60;;;;;;5091569;28;19915;-63
2022/10/08 08:16:58;;;;;;;;;;;922.00;1075.20;;;;;;5091362;28;19912;-60
2022/10/08 08:19:23;;;;;;;;;;;947.60;1049.60;;;;;;5091360;28;19908;-61
2022/10/08 08:21:49;;;;;;;;;;;871.00;1126.40;;;;;;5091343;28;20231;-60
2022/10/08 08:24:15;;;;;;;;;;;870.80;1152.00;;;;;;5089651;28;19912;-61
2022/10/08 08:26:41;;;;;;;;;;;845.70;1177.60;;;;;;5089853;28;20014;-60
2022/10/08 08:29:09;;;;;;;;;;;819.90;1203.20;;;;;;5089553;28;20365;-59
2022/10/08 08:31:36;;;;;;;;;;;845.10;1203.20;;;;;;5089495;28;19908;-64
2022/10/08 08:34:04;;;;;;;;;;;896.10;1100.80;;;;;;5089329;28;19912;-60
2022/10/08 08:36:31;;;;;;;;;;;896.90;1075.20;;;;;;5089781;28;19955;-67
2022/10/08 08:38:57;;;;;;;;;;;922.00;1075.20;;;;;;5088986;28;19908;-61
2022/10/08 08:41:32;;;;;;;;;;;896.90;1075.20;;;;;;5089653;28;19912;-61
2022/10/08 08:44:02;;;;;;;;;;;896.60;1100.80;;;;;;5088766;28;19923;-62
2022/10/08 08:46:32;;;;;;;;;;;845.30;1177.60;;;;;;5089299;28;19908;-60
2022/10/08 08:49:01;;;;;;;;;;;896.10;1100.80;;;;;;5089793;28;19916;-60
2022/10/08 08:51:27;;;;;;;;;;;870.50;1177.60;;;;;;5091027;28;19994;-60
2022/10/08 08:53:53;;;;;;;;;;;820.10;1203.20;;;;;;5091041;28;20361;-66
2022/10/08 08:56:21;;;;;;;;;;;870.80;1152.00;;;;;;5090575;28;19923;-59
2022/10/08 08:58:46;;;;;;;;;;;844.90;1203.20;;;;;;5090667;28;19918;-59
2022/10/08 09:01:20;;;;;;;;;;;794.50;1203.20;;;;;;5090752;28;19908;-60
2022/10/08 09:03:47;;;;;;;;;;;768.40;1280.00;;;;;;5090504;28;19951;-59
2022/10/08 09:06:14;;;;;;;;;;;717.70;1356.80;;;;;;5090486;28;19920;-59
2022/10/08 09:08:57;;;;;;;;;;;717.70;1356.80;;;;;;5090827;28;19908;-66
2022/10/08 09:11:23;;;;;;;;;;;691.50;1382.40;;;;;;5090755;28;20277;-59
2022/10/08 09:13:52;;;;;;;;;;;666.00;1433.60;;;;;;5090380;28;20350;-59
2022/10/08 09:16:17;;;;;;;;;;;640.90;1459.20;;;;;;5090600;28;19916;-59
2022/10/08 09:18:47;;;;;;;;;;;665.60;1510.40;;;;;;5091444;28;20380;-59
2022/10/08 09:21:13;;;;;;;;;;;640.80;1459.20;;;;;;5097209;28;20348;-59
2022/10/08 09:23:38;;;;;;;;;;;640.30;1510.40;;;;;;5096987;28;20003;-59
2022/10/08 09:26:07;;;;;;;;;;;640.10;1484.80;;;;;;5097459;28;19908;-66
2022/10/08 09:28:43;;;;;;;;;;;615.30;1510.40;;;;;;5096217;28;19935;-58
2022/10/08 09:31:28;;;;;;;;;;;615.20;1510.40;;;;;;5095380;28;20006;-67
2022/10/08 09:34:07;;;;;;;;;;;615.20;1536.00;;;;;;5094883;28;20399;-58
2022/10/08 09:36:40;;;;;;;;;;;615.00;1536.00;;;;;;5095328;28;19968;-66
2022/10/08 09:39:15;;;;;;;;;;;640.00;1536.00;;;;;;5094164;28;19916;-62
2022/10/08 09:41:40;;;;;;;;;;;615.10;1536.00;;;;;;5096491;28;19908;-66
2022/10/08 09:44:13;;;;;;;;;;;615.00;1561.60;;;;;;5096009;28;20034;-68
2022/10/08 09:46:39;;;;;;;;;;;615.30;1561.60;;;;;;5094338;28;19909;-68
2022/10/08 09:49:17;;;;;;;;;;;615.20;1561.60;;;;;;5096869;28;19999;-66
2022/10/08 09:51:42;;;;;;;;;;;615.00;1561.60;;;;;;5096929;28;20403;-67
2022/10/08 09:54:12;;;;;;;;;;;614.50;1587.20;;;;;;5096716;28;19912;-67
2022/10/08 09:56:37;;;;;;;;;;;614.80;1587.20;;;;;;5096729;28;19923;-67
2022/10/08 09:59:04;;;;;;;;;;;589.70;1587.20;;;;;;5097162;28;19908;-67
2022/10/08 10:01:32;;;;;;;;;;;589.70;1587.20;;;;;;5096884;28;20377;-59
2022/10/08 10:03:59;;;;;;;;;;;614.50;1587.20;;;;;;5096754;28;19916;-59
2022/10/08 10:06:29;;;;;;;;;;;614.60;1587.20;;;;;;5096336;28;19924;-59
2022/10/08 10:09:20;;;;;;;;;;;589.70;1612.80;;;;;;5097112;28;19916;-60
2022/10/08 10:11:48;;;;;;;;;;;589.60;1638.40;;;;;;5096730;28;19915;-58
2022/10/08 10:14:17;;;;;;;;;;;614.50;1612.80;;;;;;5096989;28;20112;-67
2022/10/08 10:16:44;;;;;;;;;;;614.70;1612.80;;;;;;5096644;28;20379;-67
2022/10/08 10:19:12;;;;;;;;;;;589.70;1612.80;;;;;;5096711;28;19908;-67
2022/10/08 10:21:58;;;;;;;;;;;589.70;1638.40;;;;;;5095142;28;20361;-66
2022/10/08 10:24:30;;;;;;;;;;;614.60;1638.40;;;;;;5096687;28;19908;-67
2022/10/08 10:26:58;;;;;;;;;;;589.50;1612.80;;;;;;5096507;28;19999;-59
2022/10/08 10:29:26;;;;;;;;;;;589.50;1638.40;;;;;;5096793;28;19952;-66
2022/10/08 10:32:24;;;;;;;;;;;589.70;1638.40;;;;;;5092914;28;19998;-68
2022/10/08 10:34:57;;;;;;;;;;;614.50;1638.40;;;;;;5050626;28;19958;-59
2022/10/08 10:37:33;;;;;;;;;;;614.40;1664.00;;;;;;5043721;28;20290;-67
2022/10/08 10:40:16;;;;;;;;;;;589.70;1638.40;;;;;;5030670;28;19967;-67
2022/10/08 10:42:42;;;;;;;;;;;589.70;1612.80;;;;;;5031151;28;19909;-58
2022/10/08 10:45:13;;;;;;;;;;;614.60;1638.40;;;;;;5030750;28;20017;-58
2022/10/08 10:47:39;;;;;;;;;;;589.70;1638.40;;;;;;5030659;28;20351;-67
2022/10/08 10:50:06;;;;;;;;;;;614.50;1664.00;;;;;;5032674;28;19913;-61
2022/10/08 10:52:37;;;;;;;;;;;614.50;1664.00;;;;;;5040091;28;19913;-68
2022/10/08 10:55:21;;;;;;;;;;;589.70;1664.00;;;;;;5040203;28;19995;-68
2022/10/08 10:58:05;;;;;;;;;;;614.50;1638.40;;;;;;5037878;28;19913;-59
2022/10/08 11:00:37;;;;;;;;;;;614.40;1664.00;;;;;;5050609;28;19960;-68
2022/10/08 11:03:21;;;;;;;;;;;614.50;1664.00;;;;;;5050442;28;19913;-59
2022/10/08 11:05:50;;;;;;;;;;;589.70;1664.00;;;;;;5039596;28;19927;-60
2022/10/08 11:08:16;;;;;;;;;;;614.50;1664.00;;;;;;5039066;28;19919;-70
2022/10/08 11:10:46;;;;;;;;;;;614.70;1638.40;;;;;;5069546;28;19912;-62
2022/10/08 11:13:18;;;;;;;;;;;614.40;1638.40;;;;;;5091468;28;19951;-59
2022/10/08 11:15:47;;;;;;;;;;;614.70;1638.40;;;;;;5091070;28;19962;-67
2022/10/08 11:18:20;;;;;;;;;;;614.90;1689.60;;;;;;5091331;28;19918;-66
2022/10/08 11:20:57;;;;;;;;;;;614.90;1689.60;;;;;;5090990;28;19912;-63
2022/10/08 11:23:42;;;;;;;;;;;614.80;1638.40;;;;;;5089648;28;19999;-68
2022/10/08 11:26:27;;;;;;;;;;;614.70;1612.80;;;;;;5090288;28;19975;-68
2022/10/08 11:29:25;;;;;;;;;;;614.80;1612.80;;;;;;5092669;28;19947;-66
2022/10/08 11:31:51;;;;;;;;;;;614.70;1612.80;;;;;;5071138;28;19947;-59
2022/10/08 11:34:20;;;;;;;;;;;614.90;1587.20;;;;;;5069621;28;19959;-59
2022/10/08 11:36:54;;;;;;;;;;;614.90;1587.20;;;;;;5069238;28;19970;-59
2022/10/08 11:39:25;;;;;;;;;;;614.90;1612.80;;;;;;5069908;28;19909;-58
2022/10/08 11:41:57;;;;;;;;;;;614.90;1612.80;;;;;;5069349;28;20398;-67
2022/10/08 11:44:23;;;;;;;;;;;615.00;1664.00;;;;;;5069428;28;19955;-68
2022/10/08 11:46:49;;;;;;;;;;;615.00;1612.80;;;;;;5069580;28;19916;-64
2022/10/08 11:49:14;;;;;;;;;;;614.80;1612.80;;;;;;5069547;28;19912;-65
2022/10/08 11:51:41;;;;;;;;;;;614.90;1587.20;;;;;;5069170;28;19951;-64
2022/10/08 11:54:25;;;;;;;;;;;615.00;1612.80;;;;;;5068584;28;19916;-65
2022/10/08 11:57:10;;;;;;;;;;;614.90;1612.80;;;;;;5069399;28;20358;-67
2022/10/08 11:59:47;;;;;;;;;;;614.70;1587.20;;;;;;5069253;28;19909;-68
2022/10/08 12:02:31;;;;;;;;;;;614.60;1612.80;;;;;;5069345;28;20015;-67
2022/10/08 12:04:58;;;;;;;;;;;614.80;1587.20;;;;;;5068792;28;20015;-58
2022/10/08 12:07:26;;;;;;;;;;;614.80;1587.20;;;;;;5069626;28;20382;-58
2022/10/08 12:10:01;;;;;;;;;;;614.70;1587.20;;;;;;5071390;28;19908;-59
2022/10/08 12:12:44;;;;;;;;;;;614.80;1561.60;;;;;;5071008;28;19920;-59
2022/10/08 12:15:22;;;;;;;;;;;615.10;1612.80;;;;;;5071268;28;19912;-68
2022/10/08 12:17:51;;;;;;;;;;;615.10;1638.40;;;;;;5071141;28;19992;-66
2022/10/08 12:20:27;;;;;;;;;;;615.20;1587.20;;;;;;5071036;28;19948;-67
2022/10/08 12:23:04;;;;;;;;;;;640.00;1587.20;;;;;;5071076;28;19908;-64
2022/10/08 12:25:32;;;;;;;;;;;640.10;1536.00;;;;;;5071054;28;19931;-63
2022/10/08 12:28:16;;;;;;;;;;;640.10;1536.00;;;;;;5071040;28;19909;-67
2022/10/08 12:30:52;;;;;;;;;;;615.30;1510.40;;;;;;5071221;28;19967;-64
2022/10/08 12:33:18;;;;;;;;;;;640.00;1561.60;;;;;;5070688;28;19962;-66
2022/10/08 12:36:02;;;;;;;;;;;615.30;1536.00;;;;;;5070699;28;20019;-59
2022/10/08 12:38:27;;;;;;;;;;;614.90;1536.00;;;;;;5070874;28;19908;-67
2022/10/08 12:41:08;;;;;;;;;;;615.00;1536.00;;;;;;5070976;28;20419;-58
2022/10/08 12:43:52;;;;;;;;;;;615.20;1536.00;;;;;;5070906;28;19915;-67
2022/10/08 12:46:28;;;;;;;;;;;615.20;1510.40;;;;;;5070426;28;20290;-67
2022/10/08 12:49:02;;;;;;;;;;;615.00;1510.40;;;;;;5070893;28;19912;-65
2022/10/08 12:51:28;;;;;;;;;;;615.00;1510.40;;;;;;5070465;28;19978;-67
2022/10/08 12:53:54;;;;;;;;;;;615.10;1510.40;;;;;;5070127;28;20358;-67
2022/10/08 12:56:22;;;;;;;;;;;615.20;1484.80;;;;;;5070477;28;19916;-67
2022/10/08 12:58:48;;;;;;;;;;;640.00;1484.80;;;;;;5070303;28;20258;-67
2022/10/08 13:01:15;;;;;;;;;;;640.10;1536.00;;;;;;5070604;28;19909;-61
2022/10/08 13:03:40;;;;;;;;;;;615.30;1484.80;;;;;;5070576;28;19915;-59
2022/10/08 13:06:26;;;;;;;;;;;615.30;1484.80;;;;;;5070107;28;20297;-58
2022/10/08 13:08:52;;;;;;;;;;;615.30;1510.40;;;;;;5070472;28;20325;-58
2022/10/08 13:11:17;;;;;;;;;;;615.30;1510.40;;;;;;5070306;28;19908;-57
2022/10/08 13:13:45;;;;;;;;;;;615.20;1510.40;;;;;;5070782;28;20301;-65
2022/10/08 13:16:12;;;;;;;;;;;615.30;1510.40;;;;;;5070212;28;19916;-66
2022/10/08 13:18:40;;;;;;;;;;;640.00;1510.40;;;;;;5070130;28;20365;-59
2022/10/08 13:21:21;;;;;;;;;;;640.00;1510.40;;;;;;5070396;28;19912;-58
2022/10/08 13:23:47;;;;;;;;;;;640.00;1510.40;;;;;;5086205;28;19975;-58
2022/10/08 13:26:31;;;;;;;;;;;640.00;1510.40;;;;;;5089257;28;19915;-58
2022/10/08 13:29:15;;;;;;;;;;;615.30;1510.40;;;;;;5087433;28;19912;-59
2022/10/08 13:31:41;;;;;;;;;;;640.10;1536.00;;;;;;5088133;28;19958;-59
2022/10/08 13:34:14;;;;;;;;;;;615.30;1510.40;;;;;;5088938;28;19916;-60
2022/10/08 13:36:45;;;;;;;;;;;615.20;1561.60;;;;;;5086639;28;20304;-59
2022/10/08 13:39:21;;;;;;;;;;;640.00;1587.20;;;;;;5085283;28;19912;-59
2022/10/08 13:41:50;;;;;;;;;;;615.30;1587.20;;;;;;5087758;28;19916;-59
2022/10/08 13:44:16;;;;;;;;;;;615.10;1587.20;;;;;;5088512;28;19961;-62
2022/10/08 13:46:42;;;;;;;;;;;615.10;1587.20;;;;;;5088480;28;19912;-63
2022/10/08 13:49:24;;;;;;;;;;;615.30;1612.80;;;;;;5086807;28;19912;-64
2022/10/08 13:51:50;;;;;;;;;;;615.00;1612.80;;;;;;5085449;28;19908;-60
2022/10/08 13:54:21;;;;;;;;;;;615.00;1612.80;;;;;;5087102;28;20362;-58
2022/10/08 13:56:47;;;;;;;;;;;614.80;1612.80;;;;;;5087203;28;19920;-59